Share

Drake, ND

Minot International (KMOT) Elev 1716 ft | 48.26 °N, 101.28 °W | Change Station
Active Advisory: Flood WarningWind Advisory

Current weather conditions updated 35 minutes ago

Mostly Cloudy
Mostly Cloudy
51 °F
Feels Like 51 °F
N
25
Wind Variable Wind from ESE
Gusts 39 mph
Sunrise 6:46 AM
Sunset 8:36 PM
Moon Waning Gibbous

Tomorrow is forecast to be Warmer than today.

Pressure 29.79 in
Visibility 10.0 miles
Clouds Mostly Cloudy 10000 ft
Mostly Cloudy 12000 ft
Dew Point 33 °F
Humidity 50%
Rainfall 0.00 in
Snow Depth Not available.
UV 1 out of 16
Pollen 8.60 out of 12
Air Quality Not available.
Flu Activity Sporadic
METAR KMOT 182254Z 11022G34KT 10SM BKN100 BKN120 11/01 A2974 RMK AO2 PK WND 10034/2245 SLP086 T01060006

More Conditions Fewer Conditions

Pressure 29.79 in
Visibility 10.0 miles
Clouds Mostly Cloudy 10000 ft
Mostly Cloudy 12000 ft
Dew Point 33 °F
Humidity 50%
Rainfall 0.00 in
Snow Depth Not available.
UV 1 out of 16
Pollen 8.60 out of 12
Air Quality Not available.
Flu Activity Sporadic
METAR KMOT 182254Z 11022G34KT 10SM BKN100 BKN120 11/01 A2974 RMK AO2 PK WND 10034/2245 SLP086 T01060006

More Conditions Fewer Conditions

10-Day Weather Forecast

Almanac

Astronomy

Apr. 18, 2014 Rise Set
Actual Time 6:46 AM CDT 8:36 PM CDT
Civil Twilight 6:13 AM CDT 9:09 PM CDT
Nautical Twilight 5:33 AM CDT 9:49 PM CDT
Astronomical Twilight 4:48 AM CDT 10:34 PM CDT
Moon No Moon Rise 9:00 AM CDT
Length of Visible Light 14h 55m
Length of Day
13h 49m
Tomorrow will be 3m 18s longer.
Waning Gibbous, 85% of the Moon is Illuminated
Today
Waning Gibbous
Apr 22
Last Quarter
Apr 29
New
May 6
First Quarter
May 14
Full

Today's Extremes

State Highs State Lows

Community

  • Spring Chickadee
    Spring Chickadee
  • What's for Lunch?
    What's for Lunch?
  • SUNRISE THROUGH THE TREES.
    SUNRISE THROUGH THE TREES.
  • Dog Wood Blossoms
    Dog Wood Blossoms
  • Morning Light
    Morning Light

WunderPhotos

Upload Photos

1,702,540 photos uploaded!

WunderBlogs® & News

Nearby

Snow Depth

Station Depth Elevation
No new snow has been reported.

Coastal Water Temperatures

Place Temperature
No Stations Reporting

Earthquake Activity

City Distance Mag. Time & Date
No recent earthquake activity has been reported nearby.
Minimum magnitude displayed is 2.5.

Nearby Weather Stations

There are no personal weather stations in this area.

What do you think?

We're not finished. Please let us know what you like, what you don't like, and what you are still missing.